createdAt,value
2023-05-17T00:02:17.823Z,8.70
2023-05-17T00:05:08.458Z,8.70
2023-05-17T00:07:57.854Z,8.63
2023-05-17T00:10:48.600Z,8.50
2023-05-17T00:13:38.131Z,8.60
2023-05-17T00:16:27.672Z,8.60
2023-05-17T00:19:17.436Z,8.53
2023-05-17T00:22:06.792Z,8.63
2023-05-17T00:24:56.159Z,8.83
2023-05-17T00:27:46.883Z,8.70
2023-05-17T00:30:36.213Z,8.80
2023-05-17T00:33:26.135Z,8.70
2023-05-17T00:36:15.532Z,8.73
2023-05-17T00:39:05.083Z,8.83
2023-05-17T00:41:54.462Z,8.57
2023-05-17T00:44:45.151Z,8.70
2023-05-17T00:47:34.544Z,8.80
2023-05-17T00:50:24.803Z,8.60
2023-05-17T00:53:16.244Z,8.77
2023-05-17T00:56:06.856Z,8.77
2023-05-17T00:58:56.606Z,8.37
2023-05-17T01:01:47.411Z,8.90
2023-05-17T01:04:37.694Z,8.90
2023-05-17T01:07:27.176Z,8.60
2023-05-17T01:10:16.805Z,8.80
2023-05-17T01:13:11.880Z,8.70
2023-05-17T01:16:18.285Z,8.50
2023-05-17T01:19:54.853Z,8.70
2023-05-17T01:22:53.042Z,8.60
2023-05-17T01:25:55.552Z,8.90
2023-05-17T01:28:50.216Z,8.80
2023-05-17T01:31:40.919Z,8.70
2023-05-17T01:34:31.170Z,8.70
2023-05-17T01:37:20.569Z,9.00
2023-05-17T01:40:12.134Z,8.83
2023-05-17T01:43:11.792Z,8.90
2023-05-17T01:46:14.593Z,8.70
2023-05-17T01:49:17.823Z,8.80
2023-05-17T01:52:12.884Z,8.50
2023-05-17T01:55:10.781Z,8.80
2023-05-17T01:58:03.323Z,8.60
2023-05-17T02:00:57.176Z,8.90
2023-05-17T02:03:50.259Z,8.90
2023-05-17T02:06:39.562Z,9.00
2023-05-17T02:09:28.987Z,8.90
2023-05-17T02:12:18.377Z,8.90
2023-05-17T02:15:11.331Z,8.70
2023-05-17T02:18:02.028Z,9.10
2023-05-17T02:20:52.754Z,9.10
2023-05-17T02:23:42.065Z,8.87
2023-05-17T02:26:32.235Z,8.70
2023-05-17T02:29:21.563Z,8.90
2023-05-17T02:32:11.100Z,8.60
2023-05-17T02:35:00.837Z,8.80
2023-05-17T02:37:52.059Z,8.90
2023-05-17T02:40:43.028Z,9.03
2023-05-17T02:43:32.392Z,9.07
2023-05-17T02:46:21.771Z,9.03
2023-05-17T02:49:11.109Z,9.03
2023-05-17T02:52:00.835Z,9.17
2023-05-17T02:54:52.624Z,9.00
2023-05-17T02:57:42.047Z,9.30
2023-05-17T03:00:31.822Z,9.27
2023-05-17T03:03:21.807Z,9.07
2023-05-17T03:06:11.517Z,9.30
2023-05-17T03:09:00.886Z,9.07
2023-05-17T03:11:51.772Z,9.10
2023-05-17T03:14:45.806Z,9.67
2023-05-17T03:17:35.281Z,9.20
2023-05-17T03:20:25.253Z,8.80
2023-05-17T03:23:14.632Z,9.50
2023-05-17T03:26:13.212Z,8.90
2023-05-17T03:29:10.067Z,8.93
2023-05-17T03:32:00.261Z,9.20
2023-05-17T03:34:49.735Z,9.20
2023-05-17T03:37:41.111Z,8.90
2023-05-17T03:40:31.275Z,9.47
2023-05-17T03:43:21.932Z,9.10
2023-05-17T03:46:14.548Z,9.20
2023-05-17T03:49:04.256Z,8.70
2023-05-17T03:51:55.722Z,9.30
2023-05-17T03:54:46.846Z,9.27
2023-05-17T03:57:37.461Z,9.73
2023-05-17T04:00:26.803Z,9.20
2023-05-17T04:03:22.487Z,9.40
2023-05-17T04:06:12.057Z,8.90
2023-05-17T04:09:02.115Z,9.20
2023-05-17T04:11:51.750Z,9.33
2023-05-17T04:14:41.400Z,9.17
2023-05-17T04:17:31.240Z,9.10
2023-05-17T04:20:22.175Z,9.00
2023-05-17T04:23:12.329Z,9.27
2023-05-17T04:26:01.754Z,9.40
2023-05-17T04:28:52.609Z,9.30
2023-05-17T04:31:42.368Z,9.10
2023-05-17T04:34:32.710Z,9.37
2023-05-17T04:37:24.601Z,9.20
2023-05-17T04:40:17.450Z,9.47
2023-05-17T04:43:08.297Z,9.10
2023-05-17T04:45:58.762Z,9.10
2023-05-17T04:48:48.400Z,9.50
2023-05-17T04:51:38.177Z,9.40
2023-05-17T04:54:29.816Z,9.20
2023-05-17T04:57:19.349Z,9.03
2023-05-17T05:00:23.942Z,9.40
2023-05-17T05:03:21.486Z,9.73
2023-05-17T05:06:11.550Z,9.60
2023-05-17T05:09:01.358Z,9.67
2023-05-17T05:11:52.218Z,9.57
2023-05-17T05:14:41.917Z,9.47
2023-05-17T05:17:32.368Z,9.70
2023-05-17T05:20:22.442Z,9.40
2023-05-17T05:23:12.078Z,9.60
2023-05-17T05:26:01.775Z,9.67
2023-05-17T05:28:52.544Z,9.20
2023-05-17T05:31:41.933Z,9.40
2023-05-17T05:34:31.779Z,9.33
2023-05-17T05:37:22.063Z,10.00
2023-05-17T05:40:12.888Z,9.63
2023-05-17T05:43:03.818Z,9.10
2023-05-17T05:45:55.363Z,9.53
2023-05-17T05:48:45.239Z,9.43
2023-05-17T05:51:36.302Z,9.47
2023-05-17T05:54:25.694Z,9.53
2023-05-17T05:57:15.209Z,9.80
2023-05-17T06:00:06.407Z,9.30
2023-05-17T06:03:17.762Z,9.67
2023-05-17T06:06:08.693Z,9.97
2023-05-17T06:08:59.788Z,9.57
2023-05-17T06:11:49.418Z,9.70
2023-05-17T06:14:38.885Z,9.47
2023-05-17T06:17:28.368Z,9.60
2023-05-17T06:20:19.399Z,9.60
2023-05-17T06:23:08.767Z,9.73
2023-05-17T06:25:58.236Z,9.10
2023-05-17T06:28:47.560Z,9.50
2023-05-17T06:31:37.397Z,9.50
2023-05-17T06:34:27.436Z,9.70
2023-05-17T06:37:18.380Z,9.97
2023-05-17T06:40:16.720Z,9.67
2023-05-17T06:43:07.013Z,9.67
2023-05-17T06:45:56.503Z,9.67
2023-05-17T06:48:47.405Z,9.93
2023-05-17T06:51:38.945Z,9.70
2023-05-17T06:54:29.787Z,9.47
2023-05-17T06:57:19.325Z,9.60
2023-05-17T07:00:11.358Z,10.13
2023-05-17T07:03:00.959Z,9.50
2023-05-17T07:05:58.637Z,9.57
2023-05-17T07:08:48.594Z,10.03
2023-05-17T07:11:39.560Z,9.63
2023-05-17T07:14:29.337Z,9.70
2023-05-17T07:17:18.738Z,9.50
2023-05-17T07:20:10.347Z,9.80
2023-05-17T07:23:00.038Z,9.10
2023-05-17T07:25:54.243Z,9.60
2023-05-17T07:28:45.099Z,9.67
2023-05-17T07:31:34.661Z,9.10
2023-05-17T07:34:24.332Z,9.50
2023-05-17T07:37:13.758Z,9.30
2023-05-17T07:40:05.211Z,9.97
2023-05-17T07:42:54.540Z,9.63
2023-05-17T07:45:47.503Z,9.13
2023-05-17T07:48:37.062Z,9.40
2023-05-17T07:51:26.631Z,9.90
2023-05-17T07:54:25.197Z,8.93
2023-05-17T07:57:14.563Z,9.13
2023-05-17T08:00:04.240Z,8.43
2023-05-17T08:03:17.179Z,8.83
2023-05-17T08:06:07.441Z,9.00
2023-05-17T08:08:56.859Z,8.83
2023-05-17T08:11:46.882Z,8.80
2023-05-17T08:14:36.574Z,9.37
2023-05-17T08:17:26.289Z,9.20
2023-05-17T08:20:17.546Z,9.50
2023-05-17T08:23:07.386Z,9.20
2023-05-17T08:25:56.703Z,9.23
2023-05-17T08:28:46.255Z,9.00
2023-05-17T08:31:35.607Z,9.07
2023-05-17T08:34:25.109Z,9.50
2023-05-17T08:37:16.040Z,9.53
2023-05-17T08:40:08.111Z,9.60
2023-05-17T08:42:58.304Z,10.27
2023-05-17T08:45:49.816Z,9.80
2023-05-17T08:48:42.088Z,9.50
2023-05-17T08:51:32.682Z,9.87
2023-05-17T08:54:23.574Z,9.80
2023-05-17T08:57:14.125Z,9.40
2023-05-17T09:00:12.477Z,9.63
2023-05-17T09:03:02.235Z,9.37
2023-05-17T09:05:53.830Z,9.73
2023-05-17T09:08:44.416Z,9.50
2023-05-17T09:11:35.154Z,9.13
2023-05-17T09:14:24.560Z,9.10
2023-05-17T09:17:17.046Z,9.40
2023-05-17T09:20:08.559Z,9.40
2023-05-17T09:22:58.756Z,9.30
2023-05-17T09:25:49.379Z,9.57
2023-05-17T09:28:42.493Z,9.47
2023-05-17T09:31:33.336Z,9.63
2023-05-17T09:34:25.985Z,9.23
2023-05-17T09:37:17.190Z,9.20
2023-05-17T09:40:09.554Z,9.63
2023-05-17T09:43:00.712Z,9.57
2023-05-17T09:45:57.968Z,9.40
2023-05-17T09:48:47.802Z,9.37
2023-05-17T09:51:39.810Z,9.40
2023-05-17T09:54:33.476Z,9.93
2023-05-17T09:57:23.811Z,9.80
2023-05-17T10:00:14.962Z,9.90
2023-05-17T10:03:07.237Z,9.80
2023-05-17T10:05:56.804Z,9.10
2023-05-17T10:08:48.646Z,9.57
2023-05-17T10:11:40.507Z,9.00
2023-05-17T10:14:33.074Z,8.97
2023-05-17T10:17:23.722Z,9.50
2023-05-17T10:20:17.477Z,8.60
2023-05-17T10:23:09.587Z,9.20
2023-05-17T10:26:00.812Z,9.17
2023-05-17T10:28:52.785Z,9.10
2023-05-17T10:31:44.750Z,8.70
2023-05-17T10:34:36.939Z,8.83
2023-05-17T10:37:30.380Z,8.63
2023-05-17T10:40:20.242Z,8.87
2023-05-17T10:43:11.691Z,9.17
2023-05-17T10:46:02.105Z,8.90
2023-05-17T10:48:53.128Z,9.10
2023-05-17T10:51:42.498Z,8.70
2023-05-17T10:54:43.119Z,9.00
2023-05-17T10:57:50.799Z,8.67
2023-05-17T11:00:41.734Z,8.60
2023-05-17T11:03:34.580Z,8.70
2023-05-17T11:06:25.529Z,8.60
2023-05-17T11:09:18.416Z,8.60
2023-05-17T11:12:11.046Z,8.47
2023-05-17T11:15:00.589Z,8.43
2023-05-17T11:17:54.028Z,8.93
2023-05-17T11:20:43.727Z,8.80
2023-05-17T11:23:35.537Z,8.90
2023-05-17T11:26:38.450Z,8.70
2023-05-17T11:29:31.985Z,8.80
2023-05-17T11:32:29.203Z,9.27
2023-05-17T11:35:19.853Z,9.43
2023-05-17T11:38:17.747Z,9.20
2023-05-17T11:41:26.873Z,9.00
2023-05-17T11:44:19.325Z,8.90
2023-05-17T11:47:12.089Z,8.80
2023-05-17T11:50:05.236Z,8.87
2023-05-17T11:52:58.335Z,8.83
2023-05-17T11:55:51.681Z,8.60
2023-05-17T11:58:42.719Z,9.00
2023-05-17T12:01:46.194Z,9.13
2023-05-17T12:04:39.542Z,8.80
2023-05-17T12:07:29.705Z,9.10
2023-05-17T12:10:19.265Z,9.00
2023-05-17T12:13:08.661Z,9.00
2023-05-17T12:15:59.577Z,8.67
2023-05-17T12:18:52.084Z,8.80
2023-05-17T12:21:42.997Z,9.10
2023-05-17T12:24:39.254Z,9.20
2023-05-17T12:27:28.817Z,8.90
2023-05-17T12:30:19.362Z,8.80
2023-05-17T12:33:09.700Z,9.20
2023-05-17T12:35:59.546Z,9.00
2023-05-17T12:38:50.656Z,8.70
2023-05-17T12:41:41.157Z,8.67
2023-05-17T12:44:30.510Z,8.80
2023-05-17T12:47:19.952Z,8.80
2023-05-17T12:50:10.158Z,9.00
2023-05-17T12:52:59.584Z,9.03
2023-05-17T12:55:50.852Z,8.63
2023-05-17T12:58:40.377Z,8.80
2023-05-17T13:01:35.755Z,8.63
2023-05-17T13:04:33.017Z,9.03
2023-05-17T13:07:24.866Z,9.50
2023-05-17T13:10:32.335Z,9.20
2023-05-17T13:13:23.216Z,8.80
2023-05-17T13:16:12.688Z,9.00
2023-05-17T13:19:02.226Z,8.90
2023-05-17T13:21:51.728Z,9.00
2023-05-17T13:24:41.666Z,9.23
2023-05-17T13:27:31.063Z,9.20
2023-05-17T13:30:21.971Z,9.20
2023-05-17T13:33:11.573Z,9.00
2023-05-17T13:36:01.118Z,9.20
2023-05-17T13:38:50.614Z,8.90
2023-05-17T13:41:40.550Z,8.90
2023-05-17T13:44:30.070Z,8.97
2023-05-17T13:47:21.201Z,8.73
2023-05-17T13:50:12.442Z,9.00
2023-05-17T13:53:03.012Z,8.77
2023-05-17T13:55:52.547Z,8.90
2023-05-17T13:58:42.051Z,8.73
2023-05-17T14:01:31.565Z,8.70
2023-05-17T14:04:22.766Z,9.00
2023-05-17T14:07:12.150Z,9.00
2023-05-17T14:10:02.175Z,8.80
2023-05-17T14:12:51.623Z,8.87
2023-05-17T14:15:41.148Z,8.80
2023-05-17T14:18:31.454Z,9.20
2023-05-17T14:21:22.352Z,8.77
2023-05-17T14:24:11.725Z,8.93
2023-05-17T14:27:02.553Z,9.30
2023-05-17T14:29:51.993Z,8.80
2023-05-17T14:32:41.436Z,9.03
2023-05-17T14:35:31.330Z,8.80
2023-05-17T14:38:23.209Z,9.03
2023-05-17T14:41:12.551Z,9.20
2023-05-17T14:44:01.896Z,9.20
2023-05-17T14:46:51.294Z,8.80
2023-05-17T14:49:40.676Z,8.83
2023-05-17T14:52:30.595Z,8.90
2023-05-17T14:55:21.368Z,9.10
2023-05-17T14:58:13.112Z,9.00
2023-05-17T15:01:05.097Z,8.80
2023-05-17T15:03:55.678Z,9.00
2023-05-17T15:06:45.561Z,8.60
2023-05-17T15:09:41.591Z,9.00
2023-05-17T15:12:33.013Z,8.70
2023-05-17T15:15:22.627Z,8.97
2023-05-17T15:18:13.684Z,9.00
2023-05-17T15:21:03.764Z,8.70
2023-05-17T15:23:53.171Z,8.80
2023-05-17T15:26:43.069Z,8.70
2023-05-17T15:29:33.852Z,8.90
2023-05-17T15:32:23.247Z,8.93
2023-05-17T15:35:12.699Z,8.70
2023-05-17T15:38:06.784Z,8.90
2023-05-17T15:41:04.995Z,8.80
2023-05-17T15:43:54.764Z,8.90
2023-05-17T15:46:45.596Z,8.90
2023-05-17T15:49:35.319Z,8.80
2023-05-17T15:52:24.826Z,9.03
2023-05-17T15:55:14.219Z,8.90
2023-05-17T15:58:07.115Z,9.07
2023-05-17T16:00:56.798Z,9.10
2023-05-17T16:03:47.635Z,8.80
2023-05-17T16:06:37.225Z,8.80
2023-05-17T16:09:26.866Z,8.90
2023-05-17T16:12:16.279Z,8.63
2023-05-17T16:15:06.657Z,9.33
2023-05-17T16:17:56.200Z,8.80
2023-05-17T16:20:47.081Z,8.93
2023-05-17T16:23:36.696Z,9.10
2023-05-17T16:26:26.603Z,9.33
2023-05-17T16:29:16.900Z,9.20
2023-05-17T16:32:07.718Z,8.93
2023-05-17T16:34:57.165Z,9.10
2023-05-17T16:37:47.920Z,9.00
2023-05-17T16:40:37.300Z,8.70
2023-05-17T16:43:27.021Z,9.00
2023-05-17T16:46:16.441Z,8.80
2023-05-17T16:49:07.706Z,8.70
2023-05-17T16:51:57.090Z,8.87
2023-05-17T16:54:50.246Z,8.80
2023-05-17T16:57:47.269Z,8.90
2023-05-17T17:00:37.216Z,9.00
2023-05-17T17:03:26.775Z,8.90
2023-05-17T17:06:16.235Z,8.90
2023-05-17T17:09:08.309Z,8.90
2023-05-17T17:12:00.173Z,8.80
2023-05-17T17:14:52.061Z,9.10
2023-05-17T17:17:42.019Z,9.30
2023-05-17T17:20:31.493Z,9.20
2023-05-17T17:23:21.176Z,9.27
2023-05-17T17:26:11.290Z,9.13
2023-05-17T17:29:03.894Z,9.17
2023-05-17T17:31:53.326Z,8.70
2023-05-17T17:34:42.793Z,9.23
2023-05-17T17:37:32.113Z,8.80
2023-05-17T17:40:21.920Z,8.70
2023-05-17T17:43:11.359Z,8.83
2023-05-17T17:46:02.186Z,9.00
2023-05-17T17:48:53.825Z,8.90
2023-05-17T17:51:44.499Z,8.70
2023-05-17T17:54:33.898Z,8.93
2023-05-17T17:57:23.335Z,8.97
2023-05-17T18:00:16.075Z,9.27
2023-05-17T18:03:07.098Z,9.00
2023-05-17T18:05:57.776Z,8.70
2023-05-17T18:08:47.405Z,9.00
2023-05-17T18:11:36.831Z,9.13
2023-05-17T18:14:26.687Z,9.40
2023-05-17T18:17:16.038Z,9.00
2023-05-17T18:20:08.826Z,8.87
2023-05-17T18:22:58.333Z,9.20
2023-05-17T18:25:50.504Z,9.07
2023-05-17T18:28:42.710Z,9.20
2023-05-17T18:31:32.480Z,8.90
2023-05-17T18:34:21.896Z,9.67
2023-05-17T18:37:12.637Z,9.63
2023-05-17T18:40:02.415Z,9.17
2023-05-17T18:42:52.011Z,9.57
2023-05-17T18:45:41.405Z,8.90
2023-05-17T18:48:30.826Z,9.30
2023-05-17T18:51:21.041Z,9.03
2023-05-17T18:54:11.817Z,9.30
2023-05-17T18:57:01.152Z,9.10
2023-05-17T18:59:50.478Z,9.43
2023-05-17T19:02:40.689Z,9.33
2023-05-17T19:05:30.185Z,9.40
2023-05-17T19:08:19.544Z,9.50
2023-05-17T19:11:10.325Z,9.27
2023-05-17T19:13:59.752Z,9.10
2023-05-17T19:16:50.175Z,9.53
2023-05-17T19:19:39.580Z,9.00
2023-05-17T19:22:28.947Z,9.23
2023-05-17T19:25:20.321Z,9.13
2023-05-17T19:28:11.710Z,9.30
2023-05-17T19:31:01.238Z,9.30
2023-05-17T19:33:51.126Z,9.10
2023-05-17T19:36:40.607Z,9.30
2023-05-17T19:39:29.988Z,9.43
2023-05-17T19:42:19.359Z,9.33
2023-05-17T19:45:11.844Z,9.10
2023-05-17T19:48:02.208Z,9.40
2023-05-17T19:50:52.913Z,9.20
2023-05-17T19:53:52.707Z,9.60
2023-05-17T19:56:43.078Z,10.03
2023-05-17T19:59:32.413Z,9.67
2023-05-17T20:02:23.309Z,10.30
2023-05-17T20:05:12.688Z,11.10
2023-05-17T20:08:02.672Z,11.17
2023-05-17T20:10:52.254Z,10.80
2023-05-17T20:13:41.681Z,10.70
2023-05-17T20:16:31.236Z,10.40
2023-05-17T20:19:23.049Z,10.57
2023-05-17T20:22:13.117Z,10.10
2023-05-17T20:25:02.594Z,10.23
2023-05-17T20:27:52.490Z,9.83
2023-05-17T20:30:45.214Z,9.90
2023-05-17T20:33:34.646Z,10.00
2023-05-17T20:36:26.341Z,9.60
2023-05-17T20:39:15.776Z,10.23
2023-05-17T20:42:05.380Z,9.47
2023-05-17T20:44:54.864Z,9.80
2023-05-17T20:47:44.414Z,9.60
2023-05-17T20:50:33.761Z,9.70
2023-05-17T20:53:24.456Z,9.03
2023-05-17T20:56:14.454Z,9.57
2023-05-17T20:59:04.015Z,9.97
2023-05-17T21:01:53.744Z,9.07
2023-05-17T21:04:43.254Z,9.47
2023-05-17T21:07:32.746Z,9.27
2023-05-17T21:10:24.140Z,9.37
2023-05-17T21:13:14.704Z,9.47
2023-05-17T21:16:04.442Z,9.20
2023-05-17T21:18:53.983Z,9.00
2023-05-17T21:21:43.405Z,9.70
2023-05-17T21:24:32.729Z,9.57
2023-05-17T21:27:23.504Z,9.63
2023-05-17T21:30:13.615Z,9.23
2023-05-17T21:33:03.761Z,9.30
2023-05-17T21:35:53.136Z,9.13
2023-05-17T21:38:42.956Z,9.20
2023-05-17T21:41:32.506Z,9.27
2023-05-17T21:44:23.285Z,9.50
2023-05-17T21:47:12.630Z,9.60
2023-05-17T21:50:01.994Z,9.40
2023-05-17T21:52:51.317Z,9.23
2023-05-17T21:55:51.416Z,9.53
2023-05-17T21:58:50.087Z,9.20
2023-05-17T22:01:40.863Z,9.13
2023-05-17T22:04:30.222Z,9.40
2023-05-17T22:07:19.580Z,10.00
2023-05-17T22:10:10.332Z,9.60
2023-05-17T22:13:02.001Z,9.67
2023-05-17T22:15:51.596Z,9.30
2023-05-17T22:18:42.443Z,9.10
2023-05-17T22:21:32.281Z,9.40
2023-05-17T22:24:21.616Z,9.37
2023-05-17T22:27:11.004Z,9.30
2023-05-17T22:30:00.756Z,9.10
2023-05-17T22:32:51.968Z,9.30
2023-05-17T22:35:42.692Z,9.50
2023-05-17T22:38:32.077Z,9.20
2023-05-17T22:41:21.683Z,9.20
2023-05-17T22:44:11.239Z,9.33
2023-05-17T22:47:02.465Z,9.40
2023-05-17T22:49:52.562Z,9.10
2023-05-17T22:52:46.435Z,9.60
2023-05-17T22:55:35.953Z,9.50
2023-05-17T22:58:25.380Z,9.10
2023-05-17T23:01:14.765Z,9.33
2023-05-17T23:04:04.234Z,9.43
2023-05-17T23:06:54.931Z,9.50
2023-05-17T23:09:45.841Z,9.60
2023-05-17T23:12:36.463Z,9.10
2023-05-17T23:15:26.007Z,9.53
2023-05-17T23:18:16.100Z,9.10
2023-05-17T23:21:05.535Z,9.30
2023-05-17T23:23:55.597Z,9.70
2023-05-17T23:26:47.592Z,9.50
2023-05-17T23:29:37.004Z,9.20
2023-05-17T23:32:26.434Z,9.20
2023-05-17T23:35:16.181Z,9.60
2023-05-17T23:38:07.157Z,9.27
2023-05-17T23:40:58.262Z,9.27
2023-05-17T23:43:49.596Z,9.30
2023-05-17T23:46:39.431Z,9.20
2023-05-17T23:49:28.833Z,9.17
2023-05-17T23:52:19.093Z,9.40
2023-05-17T23:55:09.831Z,9.30
2023-05-17T23:57:59.134Z,9.03
